Time;durP1;ratioP1;P1;durP2;ratioP2;P2;SDS_P1;SDS_P2;PMS_P1;PMS_P2;Temp;Humidity;BMP_temperature;BMP_pressure;BME280_temperature;BME280_humidity;BME280_pressure;Samples;Min_cycle;Max_cycle;Signal;HPM_P1;HPM_P2
2023/05/02 00:00:41;;;;;;;2.90;1.60;;;;;;;;;;5060744;28;20098;-85
2023/05/02 00:03:20;;;;;;;7.00;1.92;;;;;;;;;;5058510;28;20056;-84
2023/05/02 00:05:48;;;;;;;2.60;1.75;;;;;;;;;;5052062;28;20415;-84
2023/05/02 00:08:23;;;;;;;2.80;1.95;;;;;;;;;;5049324;28;20033;-84
2023/05/02 00:10:55;;;;;;;3.10;2.05;;;;;;;;;;5057044;28;20473;-83
2023/05/02 00:13:21;;;;;;;3.47;2.42;;;;;;;;;;5064092;28;20081;-83
2023/05/02 00:15:46;;;;;;;3.55;1.98;;;;;;;;;;5070984;28;20092;-84
2023/05/02 00:18:12;;;;;;;2.58;1.83;;;;;;;;;;5055642;28;20044;-83
2023/05/02 00:20:40;;;;;;;2.53;1.90;;;;;;;;;;5063470;28;20029;-87
2023/05/02 00:23:05;;;;;;;2.80;2.42;;;;;;;;;;5057607;28;20032;-83
2023/05/02 00:25:31;;;;;;;4.22;2.60;;;;;;;;;;5056938;28;20039;-82
2023/05/02 00:27:56;;;;;;;5.13;2.72;;;;;;;;;;5051465;28;20028;-83
2023/05/02 00:30:22;;;;;;;3.78;2.10;;;;;;;;;;5065746;28;20040;-82
2023/05/02 00:32:52;;;;;;;3.00;2.13;;;;;;;;;;5059647;28;20075;-81
2023/05/02 00:35:18;;;;;;;2.72;2.08;;;;;;;;;;5072072;28;20040;-82
2023/05/02 00:38:07;;;;;;;3.28;1.88;;;;;;;;;;5055600;28;20417;-83
2023/05/02 00:40:46;;;;;;;2.70;1.83;;;;;;;;;;5050760;28;20130;-83
2023/05/02 00:43:12;;;;;;;2.50;1.50;;;;;;;;;;5061596;28;20031;-82
2023/05/02 00:45:42;;;;;;;3.40;2.38;;;;;;;;;;5062376;28;20029;-85
2023/05/02 00:48:08;;;;;;;3.92;2.30;;;;;;;;;;5060512;28;20020;-85
2023/05/02 00:50:39;;;;;;;2.53;1.90;;;;;;;;;;5057579;28;20044;-83
2023/05/02 00:53:05;;;;;;;2.33;1.73;;;;;;;;;;5056076;28;20091;-83
2023/05/02 00:55:33;;;;;;;3.63;2.17;;;;;;;;;;5048498;28;20032;-83
2023/05/02 00:58:01;;;;;;;3.55;2.25;;;;;;;;;;5052927;28;20106;-81
2023/05/02 01:00:43;;;;;;;4.00;1.90;;;;;;;;;;5059069;28;20088;-83
2023/05/02 01:03:37;;;;;;;2.60;1.92;;;;;;;;;;5059841;28;20052;-83
2023/05/02 01:06:28;;;;;;;1.90;1.52;;;;;;;;;;5053361;28;20591;-84
2023/05/02 01:09:16;;;;;;;3.70;2.33;;;;;;;;;;5055265;28;20477;-85
2023/05/02 01:12:03;;;;;;;1.73;1.55;;;;;;;;;;5064603;28;20033;-82
2023/05/02 01:14:55;;;;;;;3.00;1.90;;;;;;;;;;5064225;28;20041;-84
2023/05/02 01:17:24;;;;;;;3.63;1.55;;;;;;;;;;5053436;28;20046;-82
2023/05/02 01:19:53;;;;;;;2.33;1.98;;;;;;;;;;5054846;28;20031;-82
2023/05/02 01:22:21;;;;;;;3.35;2.22;;;;;;;;;;5069578;28;20035;-84
2023/05/02 01:25:23;;;;;;;12.68;2.35;;;;;;;;;;5048206;28;20025;-82
2023/05/02 01:28:09;;;;;;;3.70;2.35;;;;;;;;;;5055161;28;20413;-85
2023/05/02 01:30:40;;;;;;;2.17;1.60;;;;;;;;;;5045237;28;20025;-84
2023/05/02 01:33:07;;;;;;;2.53;1.95;;;;;;;;;;5055397;28;20025;-86
2023/05/02 01:35:36;;;;;;;3.22;1.75;;;;;;;;;;5059946;28;20036;-83
2023/05/02 01:38:04;;;;;;;2.88;2.03;;;;;;;;;;5064629;28;20028;-82
2023/05/02 01:40:35;;;;;;;1.85;1.70;;;;;;;;;;5057699;28;20550;-84
2023/05/02 01:43:05;;;;;;;2.22;1.70;;;;;;;;;;5065529;28;20028;-85
2023/05/02 01:45:35;;;;;;;1.88;1.67;;;;;;;;;;5054657;28;20052;-84
2023/05/02 01:48:05;;;;;;;;;;;;;;;;;;5063168;28;20110;-83
2023/05/02 01:50:30;;;;;;;3.45;1.90;;;;;;;;;;5052486;28;19924;-83
2023/05/02 01:52:57;;;;;;;2.88;2.30;;;;;;;;;;5067559;28;20033;-84
2023/05/02 01:55:24;;;;;;;3.35;1.90;;;;;;;;;;5048910;28;20025;-84
2023/05/02 01:57:53;;;;;;;3.72;1.88;;;;;;;;;;5055101;28;20033;-85
2023/05/02 02:00:22;;;;;;;3.95;2.10;;;;;;;;;;5052638;28;20190;-84
2023/05/02 02:02:58;;;;;;;3.53;1.70;;;;;;;;;;5058641;28;20040;-84
2023/05/02 02:05:24;;;;;;;4.97;2.55;;;;;;;;;;5053591;28;20105;-83
2023/05/02 02:07:55;;;;;;;7.70;2.13;;;;;;;;;;5053874;28;20024;-82
2023/05/02 02:10:26;;;;;;;3.55;2.50;;;;;;;;;;5055863;28;20025;-85
2023/05/02 02:13:03;;;;;;;3.17;2.28;;;;;;;;;;5052671;28;20048;-83
2023/05/02 02:15:33;;;;;;;3.35;1.73;;;;;;;;;;5066044;28;20090;-84
2023/05/02 02:18:01;;;;;;;2.22;1.80;;;;;;;;;;5056014;28;20029;-83
2023/05/02 02:20:29;;;;;;;3.42;2.40;;;;;;;;;;5053067;28;20029;-83
2023/05/02 02:22:56;;;;;;;2.72;2.15;;;;;;;;;;5058798;28;20056;-84
2023/05/02 02:25:23;;;;;;;3.13;2.13;;;;;;;;;;5057207;28;20533;-85
2023/05/02 02:27:49;;;;;;;2.45;1.88;;;;;;;;;;5052991;28;20084;-82
2023/05/02 02:30:15;;;;;;;2.63;1.80;;;;;;;;;;5051290;28;20047;-82
2023/05/02 02:32:41;;;;;;;3.65;2.28;;;;;;;;;;5060339;28;20029;-83
2023/05/02 02:35:07;;;;;;;2.38;1.88;;;;;;;;;;5048539;28;20029;-82
2023/05/02 02:37:40;;;;;;;3.33;2.10;;;;;;;;;;5059449;28;20028;-83
2023/05/02 02:40:23;;;;;;;2.47;1.70;;;;;;;;;;5056980;28;20067;-83
2023/05/02 02:43:05;;;;;;;3.00;2.17;;;;;;;;;;5060145;28;20032;-83
2023/05/02 02:46:11;;;;;;;4.15;2.10;;;;;;;;;;5062288;28;20106;-83
2023/05/02 02:48:54;;;;;;;3.13;2.05;;;;;;;;;;5054179;28;20028;-84
2023/05/02 02:51:30;;;;;;;3.95;2.40;;;;;;;;;;5049464;28;20029;-83
2023/05/02 02:54:27;;;;;;;3.33;1.90;;;;;;;;;;5053513;28;20026;-84
2023/05/02 02:57:09;;;;;;;4.25;2.50;;;;;;;;;;5055841;28;20044;-85
2023/05/02 02:59:41;;;;;;;3.38;2.40;;;;;;;;;;5059358;28;20082;-84
2023/05/02 03:02:09;;;;;;;4.28;2.55;;;;;;;;;;5064209;28;20045;-83
2023/05/02 03:04:39;;;;;;;3.47;2.08;;;;;;;;;;5068109;28;20431;-82
2023/05/02 03:07:05;;;;;;;2.58;1.80;;;;;;;;;;5058812;28;20026;-84
2023/05/02 03:09:44;;;;;;;2.13;1.90;;;;;;;;;;5062080;28;20035;-84
2023/05/02 03:12:10;;;;;;;5.88;1.90;;;;;;;;;;5063931;28;20036;-84
2023/05/02 03:14:36;;;;;;;4.18;2.60;;;;;;;;;;5065047;28;20481;-84
2023/05/02 03:17:11;;;;;;;3.17;2.00;;;;;;;;;;5058696;28;20036;-82
2023/05/02 03:19:37;;;;;;;4.88;2.67;;;;;;;;;;5059650;28;20524;-85
2023/05/02 03:22:06;;;;;;;3.22;2.22;;;;;;;;;;5064392;28;20044;-84
2023/05/02 03:24:31;;;;;;;4.88;2.78;;;;;;;;;;5058017;28;20381;-84
2023/05/02 03:26:58;;;;;;;2.85;2.05;;;;;;;;;;5063900;28;20036;-82
2023/05/02 03:29:24;;;;;;;3.28;2.13;;;;;;;;;;5056918;28;20483;-83
2023/05/02 03:31:50;;;;;;;3.25;2.22;;;;;;;;;;5064299;28;20114;-85
2023/05/02 03:34:16;;;;;;;4.25;2.83;;;;;;;;;;5064651;28;20053;-81
2023/05/02 03:36:41;;;;;;;3.35;2.70;;;;;;;;;;5060269;28;20036;-84
2023/05/02 03:39:07;;;;;;;6.53;2.90;;;;;;;;;;5059626;28;20030;-83
2023/05/02 03:41:33;;;;;;;2.95;2.25;;;;;;;;;;5066775;28;20028;-83
2023/05/02 03:44:01;;;;;;;4.57;2.80;;;;;;;;;;5063824;28;20021;-82
2023/05/02 03:46:26;;;;;;;3.35;2.53;;;;;;;;;;5062637;28;20276;-85
2023/05/02 03:48:51;;;;;;;4.30;2.92;;;;;;;;;;5065600;28;20477;-82
2023/05/02 03:51:17;;;;;;;5.30;3.88;;;;;;;;;;5067706;28;20058;-84
2023/05/02 03:53:46;;;;;;;2.42;1.95;;;;;;;;;;5062455;28;20673;-83
2023/05/02 03:56:11;;;;;;;4.60;2.40;;;;;;;;;;5060884;28;20029;-84
2023/05/02 03:58:40;;;;;;;4.13;2.75;;;;;;;;;;5057728;28;20495;-85
2023/05/02 04:01:15;;;;;;;4.50;2.78;;;;;;;;;;5065329;28;20051;-86
2023/05/02 04:03:42;;;;;;;4.30;2.67;;;;;;;;;;5057952;28;20388;-84
2023/05/02 04:06:07;;;;;;;3.97;2.60;;;;;;;;;;5059788;28;20024;-82
2023/05/02 04:08:35;;;;;;;4.15;2.40;;;;;;;;;;5064095;28;20036;-83
2023/05/02 04:11:01;;;;;;;5.43;3.20;;;;;;;;;;5064792;28;20039;-84
2023/05/02 04:13:28;;;;;;;3.95;3.05;;;;;;;;;;5061730;28;20025;-81
2023/05/02 04:15:53;;;;;;;5.00;2.85;;;;;;;;;;5057228;28;20031;-82
2023/05/02 04:18:19;;;;;;;5.05;3.35;;;;;;;;;;5056533;28;20392;-81
2023/05/02 04:20:44;;;;;;;4.07;2.60;;;;;;;;;;5061950;28;20025;-83
2023/05/02 04:23:10;;;;;;;5.43;3.15;;;;;;;;;;5060566;28;20019;-82
2023/05/02 04:25:35;;;;;;;6.00;3.75;;;;;;;;;;5059745;28;20025;-84
2023/05/02 04:28:01;;;;;;;4.95;3.40;;;;;;;;;;5054098;28;20025;-83
2023/05/02 04:30:26;;;;;;;4.47;2.72;;;;;;;;;;5063708;28;20028;-82
2023/05/02 04:32:52;;;;;;;5.22;2.72;;;;;;;;;;5058163;28;20063;-85
2023/05/02 04:35:18;;;;;;;5.05;3.47;;;;;;;;;;5062095;28;20454;-82
2023/05/02 04:37:43;;;;;;;5.25;3.50;;;;;;;;;;5056963;28;20078;-84
2023/05/02 04:40:09;;;;;;;5.05;3.20;;;;;;;;;;5063805;28;20036;-83
2023/05/02 04:42:34;;;;;;;5.45;3.22;;;;;;;;;;5058426;28;20017;-83
2023/05/02 04:45:00;;;;;;;7.30;3.22;;;;;;;;;;5063769;28;20777;-81
2023/05/02 04:47:25;;;;;;;4.50;3.53;;;;;;;;;;5055490;28;20044;-83
2023/05/02 04:49:51;;;;;;;6.10;4.18;;;;;;;;;;5062521;28;20074;-82
2023/05/02 04:52:17;;;;;;;6.28;3.60;;;;;;;;;;5053693;28;20117;-85
2023/05/02 04:54:43;;;;;;;4.00;2.60;;;;;;;;;;5064476;28;20043;-84
2023/05/02 04:57:09;;;;;;;3.47;2.78;;;;;;;;;;5059426;28;20528;-85
2023/05/02 04:59:34;;;;;;;5.45;3.03;;;;;;;;;;5056377;28;20407;-84
2023/05/02 05:02:00;;;;;;;5.65;3.38;;;;;;;;;;5059764;28;20043;-83
2023/05/02 05:04:26;;;;;;;3.35;2.63;;;;;;;;;;5065884;28;20028;-85
2023/05/02 05:06:53;;;;;;;4.32;3.30;;;;;;;;;;5062447;28;20049;-84
2023/05/02 05:09:19;;;;;;;4.80;2.97;;;;;;;;;;5054509;28;20147;-83
2023/05/02 05:11:45;;;;;;;4.70;2.78;;;;;;;;;;5060419;28;20029;-86
2023/05/02 05:14:11;;;;;;;3.47;2.38;;;;;;;;;;5061084;28;20420;-83
2023/05/02 05:16:36;;;;;;;5.30;2.65;;;;;;;;;;5059944;28;20025;-82
2023/05/02 05:19:03;;;;;;;3.97;2.60;;;;;;;;;;5058269;28;20024;-82
2023/05/02 05:21:28;;;;;;;4.13;2.65;;;;;;;;;;5057804;28;20024;-85
2023/05/02 05:23:54;;;;;;;4.25;2.70;;;;;;;;;;5058639;28;20357;-80
2023/05/02 05:26:20;;;;;;;4.13;2.42;;;;;;;;;;5060535;28;20020;-83
2023/05/02 05:28:45;;;;;;;4.03;3.08;;;;;;;;;;5059765;28;20067;-84
2023/05/02 05:31:12;;;;;;;2.97;2.25;;;;;;;;;;5060734;28;20063;-84
2023/05/02 05:33:38;;;;;;;2.95;2.30;;;;;;;;;;5057691;28;20033;-83
2023/05/02 05:36:09;;;;;;;3.33;2.10;;;;;;;;;;5058864;28;20024;-81
2023/05/02 05:38:35;;;;;;;2.85;2.17;;;;;;;;;;5060085;28;20111;-82
2023/05/02 05:41:00;;;;;;;9.60;2.85;;;;;;;;;;5056542;28;20109;-81
2023/05/02 05:43:26;;;;;;;3.10;2.17;;;;;;;;;;5051204;28;20486;-83
2023/05/02 05:45:52;;;;;;;3.00;2.30;;;;;;;;;;5054990;28;20021;-83
2023/05/02 05:48:18;;;;;;;3.72;3.00;;;;;;;;;;5064769;28;20468;-83
2023/05/02 05:50:43;;;;;;;3.25;2.42;;;;;;;;;;5062993;28;20036;-84
2023/05/02 05:53:09;;;;;;;5.40;2.83;;;;;;;;;;5059054;28;20029;-84
2023/05/02 05:55:35;;;;;;;4.95;2.63;;;;;;;;;;5059467;28;20040;-82
2023/05/02 05:58:00;;;;;;;3.05;2.28;;;;;;;;;;5059065;28;20029;-86
2023/05/02 06:00:26;;;;;;;4.15;2.45;;;;;;;;;;5054294;28;20048;-83
2023/05/02 06:02:51;;;;;;;4.15;2.10;;;;;;;;;;5063409;28;20041;-86
2023/05/02 06:05:16;;;;;;;3.17;2.08;;;;;;;;;;5054856;28;20023;-84
2023/05/02 06:07:42;;;;;;;2.85;2.03;;;;;;;;;;5061206;28;20485;-86
2023/05/02 06:10:08;;;;;;;3.83;2.55;;;;;;;;;;5058203;28;20037;-82
2023/05/02 06:12:34;;;;;;;3.85;2.58;;;;;;;;;;5057085;28;20028;-83
2023/05/02 06:15:00;;;;;;;3.78;2.58;;;;;;;;;;5053180;28;20147;-84
2023/05/02 06:17:25;;;;;;;3.40;2.35;;;;;;;;;;5058598;28;20060;-83
2023/05/02 06:19:51;;;;;;;2.40;1.75;;;;;;;;;;5051226;28;20060;-84
2023/05/02 06:22:16;;;;;;;4.80;2.35;;;;;;;;;;5060966;28;20028;-84
2023/05/02 06:24:42;;;;;;;4.00;2.10;;;;;;;;;;5055125;28;20025;-83
2023/05/02 06:27:07;;;;;;;6.53;2.42;;;;;;;;;;5058758;28;20025;-83
2023/05/02 06:29:32;;;;;;;3.65;2.40;;;;;;;;;;5060686;28;20119;-83
2023/05/02 06:31:58;;;;;;;4.07;2.58;;;;;;;;;;5067129;28;20081;-84
2023/05/02 06:34:23;;;;;;;3.60;2.10;;;;;;;;;;5057942;28;20469;-83
2023/05/02 06:36:56;;;;;;;9.65;2.42;;;;;;;;;;5070592;28;20031;-82
2023/05/02 06:39:21;;;;;;;2.15;1.50;;;;;;;;;;5055280;28;20480;-82
2023/05/02 06:41:47;;;;;;;2.55;1.73;;;;;;;;;;5061790;28;20054;-82
2023/05/02 06:44:13;;;;;;;3.22;1.83;;;;;;;;;;5062982;28;20029;-83
2023/05/02 06:46:38;;;;;;;2.47;1.70;;;;;;;;;;5068550;28;20036;-83
2023/05/02 06:49:03;;;;;;;5.03;2.33;;;;;;;;;;5063154;28;20028;-84
2023/05/02 06:51:30;;;;;;;3.42;2.08;;;;;;;;;;5061358;28;20036;-83
2023/05/02 06:53:55;;;;;;;2.00;1.60;;;;;;;;;;5057349;28;20044;-85
2023/05/02 06:56:21;;;;;;;5.82;2.75;;;;;;;;;;5065394;28;20489;-84
2023/05/02 06:58:46;;;;;;;5.22;2.38;;;;;;;;;;5057066;28;20563;-85
2023/05/02 07:01:12;;;;;;;3.38;1.98;;;;;;;;;;5056243;28;20033;-87
2023/05/02 07:03:37;;;;;;;2.15;1.83;;;;;;;;;;5055230;28;20095;-83
2023/05/02 07:06:03;;;;;;;4.28;2.30;;;;;;;;;;5042482;28;20033;-82
2023/05/02 07:08:28;;;;;;;3.22;1.58;;;;;;;;;;5061565;28;20032;-81
2023/05/02 07:10:53;;;;;;;3.83;2.40;;;;;;;;;;5053937;28;20025;-85
2023/05/02 07:13:19;;;;;;;3.38;2.15;;;;;;;;;;5055261;28;20042;-84
2023/05/02 07:15:44;;;;;;;3.42;2.10;;;;;;;;;;5062549;28;20021;-85
2023/05/02 07:18:10;;;;;;;2.38;1.95;;;;;;;;;;5059085;28;20025;-84
2023/05/02 07:20:37;;;;;;;4.63;2.20;;;;;;;;;;5059255;28;20047;-82
2023/05/02 07:23:03;;;;;;;4.03;2.08;;;;;;;;;;5052178;28;20472;-82
2023/05/02 07:25:28;;;;;;;2.10;1.70;;;;;;;;;;5054082;28;20124;-84
2023/05/02 07:27:53;;;;;;;2.83;1.85;;;;;;;;;;5064481;28;20036;-83
2023/05/02 07:30:19;;;;;;;2.72;2.15;;;;;;;;;;5059612;28;20027;-80
2023/05/02 07:32:44;;;;;;;2.92;1.50;;;;;;;;;;5061420;28;20060;-84
2023/05/02 07:35:10;;;;;;;3.05;1.98;;;;;;;;;;5059039;28;20066;-83
2023/05/02 07:37:35;;;;;;;3.00;2.10;;;;;;;;;;5054288;28;20086;-83
2023/05/02 07:40:02;;;;;;;9.85;2.45;;;;;;;;;;5058485;28;20032;-82
2023/05/02 07:42:28;;;;;;;2.88;1.88;;;;;;;;;;5048842;28;20108;-82
2023/05/02 07:44:54;;;;;;;5.50;1.88;;;;;;;;;;5057468;28;20211;-78
2023/05/02 07:47:20;;;;;;;4.40;2.45;;;;;;;;;;5053471;28;20126;-83
2023/05/02 07:49:50;;;;;;;3.13;1.50;;;;;;;;;;5055318;28;20241;-84
2023/05/02 07:52:15;;;;;;;2.92;1.67;;;;;;;;;;5049382;28;20047;-82
2023/05/02 07:54:41;;;;;;;3.03;2.10;;;;;;;;;;5051634;28;20413;-86
2023/05/02 07:57:07;;;;;;;2.95;1.73;;;;;;;;;;5054730;28;20040;-82
2023/05/02 07:59:33;;;;;;;4.00;1.98;;;;;;;;;;5064984;28;20029;-85
2023/05/02 08:01:58;;;;;;;2.60;1.75;;;;;;;;;;5051008;28;20612;-85
2023/05/02 08:04:24;;;;;;;2.58;1.85;;;;;;;;;;5055291;28;20485;-85
2023/05/02 08:06:50;;;;;;;2.50;1.77;;;;;;;;;;5053584;28;20044;-83
2023/05/02 08:09:15;;;;;;;2.85;1.67;;;;;;;;;;5059265;28;20028;-86
2023/05/02 08:11:41;;;;;;;2.25;1.65;;;;;;;;;;5052455;28;20051;-85
2023/05/02 08:14:33;;;;;;;6.05;1.77;;;;;;;;;;5057267;28;20021;-85
2023/05/02 08:20:15;;;;;;;4.82;1.38;;;;;;;;;;5054107;28;20043;-86
2023/05/02 08:22:43;;;;;;;2.70;1.52;;;;;;;;;;5059604;28;20123;-82
2023/05/02 08:25:14;;;;;;;3.83;1.60;;;;;;;;;;5058598;28;20036;-88
2023/05/02 08:27:42;;;;;;;2.05;1.67;;;;;;;;;;5052321;28;20039;-85
2023/05/02 08:30:13;;;;;;;1.83;1.67;;;;;;;;;;5064181;28;20129;-83
2023/05/02 08:32:41;;;;;;;2.13;1.75;;;;;;;;;;5064974;28;20032;-83
2023/05/02 08:35:07;;;;;;;1.90;1.70;;;;;;;;;;5056209;28;20059;-85
2023/05/02 08:37:33;;;;;;;2.83;1.35;;;;;;;;;;5054853;28;20449;-82
2023/05/02 08:40:18;;;;;;;4.45;1.60;;;;;;;;;;5057537;28;20365;-82
2023/05/02 08:43:12;;;;;;;2.47;1.67;;;;;;;;;;5049528;28;20475;-88
2023/05/02 08:46:03;;;;;;;3.28;1.80;;;;;;;;;;5086820;28;20025;-85
2023/05/02 08:48:34;;;;;;;3.90;1.77;;;;;;;;;;5057129;28;20539;-83
2023/05/02 08:51:14;;;;;;;3.05;1.63;;;;;;;;;;5050111;28;20033;-84
2023/05/02 08:54:11;;;;;;;;;;;;;;;;;;;;;
2023/05/02 08:57:08;;;;;;;;;;;;;;;;;;;;;
2023/05/02 08:59:44;;;;;;;2.42;1.60;;;;;;;;;;5062066;28;20032;-85
2023/05/02 09:06:40;;;;;;;4.90;1.90;;;;;;;;;;5055449;28;20040;-83
2023/05/02 09:09:35;;;;;;;3.00;1.40;;;;;;;;;;4991522;28;20795;-83
2023/05/02 09:12:34;;;;;;;9.82;1.55;;;;;;;;;;5006696;28;20037;-84
2023/05/02 09:15:36;;;;;;;1.88;1.35;;;;;;;;;;5009308;28;20505;-83
2023/05/02 09:18:18;;;;;;;2.60;1.88;;;;;;;;;;4910341;29;20046;-81
2023/05/02 09:21:13;;;;;;;3.55;1.33;;;;;;;;;;5024276;28;20543;-84
2023/05/02 09:24:13;;;;;;;3.90;1.25;;;;;;;;;;5049446;28;20069;-81
2023/05/02 09:27:13;;;;;;;6.72;1.63;;;;;;;;;;5031005;28;20041;-82
2023/05/02 09:29:48;;;;;;;2.40;1.50;;;;;;;;;;5046692;28;20037;-81
2023/05/02 09:32:27;;;;;;;;;;;;;;;;;;;;;
2023/05/02 09:35:22;;;;;;;;;;;;;;;;;;;;;
2023/05/02 09:38:26;;;;;;;2.63;1.58;;;;;;;;;;5048454;28;20025;-84
2023/05/02 09:41:02;;;;;;;2.42;1.52;;;;;;;;;;5054369;28;20108;-86
2023/05/02 09:43:32;;;;;;;3.25;2.00;;;;;;;;;;5059249;28;20028;-82
2023/05/02 09:46:02;;;;;;;2.88;1.73;;;;;;;;;;5051104;28;20043;-82
2023/05/02 09:48:39;;;;;;;;;;;;;;;;;;;;;
2023/05/02 09:51:22;;;;;;;2.65;1.50;;;;;;;;;;5051599;28;20035;-84
2023/05/02 09:53:48;;;;;;;1.58;1.00;;;;;;;;;;5046328;28;20025;-83
2023/05/02 09:56:16;;;;;;;1.70;1.20;;;;;;;;;;5056872;28;20510;-82
2023/05/02 09:58:47;;;;;;;7.47;2.13;;;;;;;;;;5047892;28;20083;-86
2023/05/02 10:01:17;;;;;;;1.90;1.20;;;;;;;;;;5051767;28;20033;-82
2023/05/02 10:03:46;;;;;;;1.10;0.93;;;;;;;;;;5055415;28;20626;-81
2023/05/02 10:06:13;;;;;;;3.58;1.88;;;;;;;;;;5054590;28;20039;-81
2023/05/02 10:08:44;;;;;;;2.63;1.25;;;;;;;;;;5065606;28;20036;-83
2023/05/02 10:11:16;;;;;;;1.60;1.30;;;;;;;;;;5052511;28;20021;-86
2023/05/02 10:13:48;;;;;;;6.28;1.75;;;;;;;;;;5076548;28;20136;-84
2023/05/02 10:16:35;;;;;;;;;;;;;;;;;;;;;
2023/05/02 10:19:11;;;;;;;4.38;1.40;;;;;;;;;;5055216;28;20480;-82
2023/05/02 10:21:44;;;;;;;3.67;1.27;;;;;;;;;;5057919;28;20140;-83
2023/05/02 10:24:11;;;;;;;3.67;1.40;;;;;;;;;;5057240;28;20028;-84
2023/05/02 10:26:37;;;;;;;1.83;1.08;;;;;;;;;;5061781;28;20033;-83
2023/05/02 10:29:02;;;;;;;2.70;1.45;;;;;;;;;;5064237;28;20048;-83
2023/05/02 10:31:33;;;;;;;1.75;1.20;;;;;;;;;;5067373;28;20403;-81
2023/05/02 10:34:00;;;;;;;2.40;1.40;;;;;;;;;;5070077;28;20056;-85
2023/05/02 10:36:26;;;;;;;1.85;1.27;;;;;;;;;;5064865;28;20120;-83
2023/05/02 10:38:53;;;;;;;1.67;1.25;;;;;;;;;;5063012;28;20147;-81
2023/05/02 10:41:23;;;;;;;1.35;1.15;;;;;;;;;;5060127;28;20079;-82
2023/05/02 10:43:49;;;;;;;1.80;1.25;;;;;;;;;;5063748;28;20166;-83
2023/05/02 10:46:33;;;;;;;3.40;1.20;;;;;;;;;;5066952;28;20081;-83
2023/05/02 10:49:06;;;;;;;1.70;1.30;;;;;;;;;;5074721;28;20025;-83
2023/05/02 10:51:33;;;;;;;2.75;1.48;;;;;;;;;;5051281;28;20432;-84
2023/05/02 10:54:22;;;;;;;2.65;1.25;;;;;;;;;;5062629;28;20045;-83
2023/05/02 10:57:03;;;;;;;4.82;1.55;;;;;;;;;;5060624;28;20021;-83
2023/05/02 10:59:32;;;;;;;3.22;1.40;;;;;;;;;;5068314;28;20120;-83
2023/05/02 11:01:58;;;;;;;1.58;0.98;;;;;;;;;;5056593;28;20086;-84
2023/05/02 11:04:23;;;;;;;4.72;1.38;;;;;;;;;;5063440;28;20107;-82
2023/05/02 11:07:04;;;;;;;2.95;1.35;;;;;;;;;;5066402;28;20043;-83
2023/05/02 11:09:31;;;;;;;1.52;1.02;;;;;;;;;;5058103;28;20029;-83
2023/05/02 11:11:57;;;;;;;1.70;1.33;;;;;;;;;;5061534;28;20472;-82
2023/05/02 11:14:29;;;;;;;1.50;1.27;;;;;;;;;;5062987;28;20159;-83
2023/05/02 11:17:00;;;;;;;1.38;1.13;;;;;;;;;;5062096;28;20040;-83
2023/05/02 11:19:27;;;;;;;2.00;1.30;;;;;;;;;;5056016;28;20416;-84
2023/05/02 11:22:12;;;;;;;2.22;1.48;;;;;;;;;;5058538;28;20032;-82
2023/05/02 11:24:43;;;;;;;1.75;1.20;;;;;;;;;;5066499;28;20020;-82
2023/05/02 11:27:37;;;;;;;1.88;1.20;;;;;;;;;;5061468;28;20473;-82
2023/05/02 11:30:06;;;;;;;2.35;1.10;;;;;;;;;;5058616;28;20012;-83
2023/05/02 11:32:48;;;;;;;2.28;0.82;;;;;;;;;;5067887;28;20503;-81
2023/05/02 11:35:21;;;;;;;2.17;1.33;;;;;;;;;;5061989;28;20021;-82
2023/05/02 11:37:53;;;;;;;1.35;1.15;;;;;;;;;;5050442;28;20434;-83
2023/05/02 11:40:19;;;;;;;2.20;1.58;;;;;;;;;;5062973;28;20021;-82
2023/05/02 11:42:45;;;;;;;2.00;1.17;;;;;;;;;;5063013;28;20021;-83
2023/05/02 11:45:10;;;;;;;1.27;0.98;;;;;;;;;;5060400;28;20024;-81
2023/05/02 11:47:36;;;;;;;2.35;1.17;;;;;;;;;;5055623;28;20040;-82
2023/05/02 11:50:05;;;;;;;3.22;1.15;;;;;;;;;;5059873;28;20037;-82
2023/05/02 11:52:37;;;;;;;1.43;1.07;;;;;;;;;;5055845;28;20087;-82
2023/05/02 11:55:05;;;;;;;1.83;1.40;;;;;;;;;;5065859;28;20431;-83
2023/05/02 11:57:32;;;;;;;1.92;1.15;;;;;;;;;;5060818;28;20065;-82
2023/05/02 11:59:57;;;;;;;2.58;1.40;;;;;;;;;;5060271;28;20037;-83
2023/05/02 12:02:49;;;;;;;1.48;0.95;;;;;;;;;;5060247;28;20048;-82
2023/05/02 12:05:28;;;;;;;1.77;1.00;;;;;;;;;;5057736;28;20532;-85
2023/05/02 12:07:53;;;;;;;3.55;1.35;;;;;;;;;;5062069;28;20024;-84
2023/05/02 12:10:19;;;;;;;5.22;1.27;;;;;;;;;;5056659;28;20384;-84
2023/05/02 12:12:44;;;;;;;2.20;1.15;;;;;;;;;;5065255;28;20491;-84
2023/05/02 12:15:11;;;;;;;0.95;0.90;;;;;;;;;;5064105;28;20052;-84
2023/05/02 12:17:42;;;;;;;2.25;1.30;;;;;;;;;;5063420;28;20099;-84
2023/05/02 12:20:09;;;;;;;2.13;1.23;;;;;;;;;;5058407;28;20035;-83
2023/05/02 12:22:35;;;;;;;1.75;1.20;;;;;;;;;;5054838;28;20542;-84
2023/05/02 12:25:02;;;;;;;2.30;1.65;;;;;;;;;;5060015;28;20029;-84
2023/05/02 12:27:28;;;;;;;5.20;1.10;;;;;;;;;;5062749;28;20035;-84
2023/05/02 12:29:56;;;;;;;2.15;1.40;;;;;;;;;;5059225;28;20115;-83
2023/05/02 12:32:33;;;;;;;2.10;1.27;;;;;;;;;;5063183;28;20469;-83
2023/05/02 12:35:00;;;;;;;1.50;1.20;;;;;;;;;;5059776;28;20400;-83
2023/05/02 12:37:26;;;;;;;1.50;1.15;;;;;;;;;;5061330;28;20107;-83
2023/05/02 12:39:54;;;;;;;4.68;1.20;;;;;;;;;;5063628;28;20044;-84
2023/05/02 12:42:21;;;;;;;1.85;1.20;;;;;;;;;;5058053;28;20115;-83
2023/05/02 12:44:50;;;;;;;2.33;1.30;;;;;;;;;;5052564;28;20059;-83
2023/05/02 12:47:15;;;;;;;1.85;1.27;;;;;;;;;;5064486;28;20472;-85
2023/05/02 12:49:54;;;;;;;2.58;1.40;;;;;;;;;;5064889;28;20039;-82
2023/05/02 12:52:41;;;;;;;2.63;1.20;;;;;;;;;;5058394;28;20040;-85
2023/05/02 12:55:23;;;;;;;1.13;1.02;;;;;;;;;;5061762;28;20056;-85
2023/05/02 12:57:49;;;;;;;1.20;1.10;;;;;;;;;;5060110;28;20033;-86
2023/05/02 13:00:18;;;;;;;1.25;0.93;;;;;;;;;;5060649;28;20086;-85
2023/05/02 13:02:43;;;;;;;2.03;1.20;;;;;;;;;;5057872;28;20041;-85
2023/05/02 13:05:16;;;;;;;2.17;1.00;;;;;;;;;;5058131;28;20021;-87
2023/05/02 13:07:41;;;;;;;1.38;1.08;;;;;;;;;;5059979;28;20468;-85
2023/05/02 13:10:07;;;;;;;2.10;1.08;;;;;;;;;;5055991;28;20027;-84
2023/05/02 13:12:36;;;;;;;1.67;1.00;;;;;;;;;;5060955;28;20025;-86
2023/05/02 13:15:02;;;;;;;1.17;1.08;;;;;;;;;;5057309;28;20388;-84
2023/05/02 13:17:28;;;;;;;4.30;1.17;;;;;;;;;;5059974;28;20037;-84
2023/05/02 13:19:53;;;;;;;4.00;1.05;;;;;;;;;;5057918;28;20041;-83
2023/05/02 13:22:18;;;;;;;1.13;0.90;;;;;;;;;;5054520;28;20421;-84
2023/05/02 13:24:45;;;;;;;1.38;0.88;;;;;;;;;;5054406;28;20075;-85
2023/05/02 13:27:11;;;;;;;1.38;1.27;;;;;;;;;;5058900;28;20056;-85
2023/05/02 13:29:36;;;;;;;1.65;1.17;;;;;;;;;;5055742;28;20056;-84
2023/05/02 13:32:01;;;;;;;2.13;0.98;;;;;;;;;;5050232;28;20029;-83
2023/05/02 13:34:27;;;;;;;1.42;1.10;;;;;;;;;;5049239;28;20036;-85
2023/05/02 13:36:52;;;;;;;1.55;1.08;;;;;;;;;;5061327;28;20040;-84
2023/05/02 13:39:18;;;;;;;2.10;1.38;;;;;;;;;;5059790;28;20025;-84
2023/05/02 13:41:43;;;;;;;2.30;1.50;;;;;;;;;;5051880;28;20376;-83
2023/05/02 13:44:11;;;;;;;4.30;1.27;;;;;;;;;;5055103;28;20099;-82
2023/05/02 13:46:37;;;;;;;3.43;1.10;;;;;;;;;;5053219;28;20027;-82
2023/05/02 13:49:05;;;;;;;1.30;0.98;;;;;;;;;;5053070;28;20277;-83
2023/05/02 13:51:31;;;;;;;1.30;1.10;;;;;;;;;;5060131;28;20035;-82
2023/05/02 13:53:57;;;;;;;3.60;1.23;;;;;;;;;;5056553;28;20249;-81
2023/05/02 13:56:23;;;;;;;1.88;1.20;;;;;;;;;;5052092;28;20079;-82
2023/05/02 13:58:48;;;;;;;2.42;1.10;;;;;;;;;;5052528;28;20433;-82
2023/05/02 14:01:14;;;;;;;1.73;1.05;;;;;;;;;;5046192;28;20021;-82
2023/05/02 14:03:39;;;;;;;1.67;1.23;;;;;;;;;;5049975;28;20126;-82
2023/05/02 14:06:05;;;;;;;1.58;1.02;;;;;;;;;;5050103;28;20024;-81
2023/05/02 14:08:30;;;;;;;1.52;1.05;;;;;;;;;;5060781;28;20107;-83
2023/05/02 14:10:56;;;;;;;1.58;1.13;;;;;;;;;;5057009;28;20078;-82
2023/05/02 14:13:21;;;;;;;1.10;0.90;;;;;;;;;;5050133;28;20021;-84
2023/05/02 14:15:47;;;;;;;2.28;1.20;;;;;;;;;;5059761;28;20028;-84
2023/05/02 14:18:12;;;;;;;1.80;1.00;;;;;;;;;;5057956;28;20033;-83
2023/05/02 14:20:38;;;;;;;2.00;1.17;;;;;;;;;;5063111;28;20445;-81
2023/05/02 14:23:03;;;;;;;1.13;1.00;;;;;;;;;;5060605;28;20032;-82
2023/05/02 14:25:28;;;;;;;1.42;1.20;;;;;;;;;;5056454;28;20385;-84
2023/05/02 14:27:54;;;;;;;2.10;1.20;;;;;;;;;;5063815;28;20025;-83
2023/05/02 14:30:20;;;;;;;1.67;1.00;;;;;;;;;;5054279;28;20017;-83
2023/05/02 14:32:45;;;;;;;1.05;0.85;;;;;;;;;;5057033;28;20016;-83
2023/05/02 14:35:11;;;;;;;1.27;1.02;;;;;;;;;;5061667;28;20067;-85
2023/05/02 14:37:36;;;;;;;1.00;0.80;;;;;;;;;;5057749;28;20140;-82
2023/05/02 14:40:01;;;;;;;1.40;0.98;;;;;;;;;;5067946;28;20024;-82
2023/05/02 14:42:27;;;;;;;0.93;0.80;;;;;;;;;;5058202;28;20041;-83
2023/05/02 14:44:52;;;;;;;1.50;1.05;;;;;;;;;;5056799;28;20051;-82
2023/05/02 14:47:18;;;;;;;3.45;1.25;;;;;;;;;;5060085;28;20029;-83
2023/05/02 14:49:43;;;;;;;1.05;0.80;;;;;;;;;;5055036;28;20056;-81
2023/05/02 14:52:08;;;;;;;1.58;0.95;;;;;;;;;;5058846;28;20025;-82
2023/05/02 14:54:34;;;;;;;1.60;1.35;;;;;;;;;;5067036;28;20029;-82
2023/05/02 14:57:02;;;;;;;1.27;0.85;;;;;;;;;;5059568;28;20059;-84
2023/05/02 14:59:28;;;;;;;1.25;0.85;;;;;;;;;;5059380;28;20032;-83
2023/05/02 15:01:54;;;;;;;1.63;1.00;;;;;;;;;;5059160;28;20452;-81
2023/05/02 15:04:19;;;;;;;1.35;0.85;;;;;;;;;;5064231;28;20025;-83
2023/05/02 15:06:46;;;;;;;1.95;1.00;;;;;;;;;;5063299;28;20025;-82
2023/05/02 15:09:12;;;;;;;2.20;0.73;;;;;;;;;;5059192;28;20032;-82
2023/05/02 15:11:38;;;;;;;1.27;1.10;;;;;;;;;;5058005;28;20033;-81